createdAt,value
2023-05-18T00:00:49.268Z,101163.00
2023-05-18T00:05:51.276Z,101169.75
2023-05-18T00:10:53.383Z,101178.22
2023-05-18T00:15:55.252Z,101175.78
2023-05-18T00:20:59.072Z,101185.47
2023-05-18T00:26:01.955Z,101184.84
2023-05-18T00:31:03.621Z,101184.34
2023-05-18T00:36:05.507Z,101184.72
2023-05-18T00:41:07.197Z,101183.63
2023-05-18T00:46:08.988Z,101204.09
2023-05-18T00:51:11.536Z,101206.91
2023-05-18T00:56:13.462Z,101208.63
2023-05-18T01:01:17.778Z,101212.25
2023-05-18T01:06:20.080Z,101208.44
2023-05-18T01:11:26.163Z,101209.16
2023-05-18T01:16:34.714Z,101217.34
2023-05-18T01:22:04.128Z,101225.25
2023-05-18T01:27:07.092Z,101233.81
2023-05-18T01:32:09.382Z,101227.88
2023-05-18T01:37:11.115Z,101231.63
2023-05-18T01:42:16.937Z,101228.09
2023-05-18T01:47:19.036Z,101225.88
2023-05-18T01:52:25.074Z,101222.19
2023-05-18T01:57:28.317Z,101230.38
2023-05-18T02:02:31.087Z,101222.44
2023-05-18T02:07:33.218Z,101224.63
2023-05-18T02:12:34.984Z,101231.09
2023-05-18T02:17:39.684Z,101223.38
2023-05-18T02:22:41.456Z,101230.19
2023-05-18T02:27:43.465Z,101237.63
2023-05-18T02:32:47.231Z,101234.53
2023-05-18T02:37:50.172Z,101251.22
2023-05-18T02:42:51.986Z,101246.38
2023-05-18T02:47:53.862Z,101249.88
2023-05-18T02:52:55.968Z,101253.00
2023-05-18T02:57:58.417Z,101257.75
2023-05-18T03:03:19.478Z,101259.91
2023-05-18T03:08:27.314Z,101267.84
2023-05-18T03:13:29.438Z,101268.28
2023-05-18T03:18:32.156Z,101260.69
2023-05-18T03:23:34.828Z,101265.53
2023-05-18T03:28:40.370Z,101265.84
2023-05-18T03:33:42.084Z,101278.09
2023-05-18T03:38:46.737Z,101271.97
2023-05-18T03:43:50.799Z,101266.91
2023-05-18T03:48:54.307Z,101278.19
2023-05-18T03:54:02.338Z,101285.91
2023-05-18T03:59:04.928Z,101286.78
2023-05-18T04:04:07.402Z,101292.03
2023-05-18T04:09:09.994Z,101295.88
2023-05-18T04:14:12.409Z,101295.97
2023-05-18T04:19:14.101Z,101304.66
2023-05-18T04:24:16.546Z,101313.06
2023-05-18T04:29:18.503Z,101310.03
2023-05-18T04:34:20.199Z,101315.75
2023-05-18T04:39:26.785Z,101315.59
2023-05-18T04:44:30.272Z,101312.75
2023-05-18T04:49:35.006Z,101313.44
2023-05-18T04:54:37.030Z,101317.44
2023-05-18T04:59:41.348Z,101322.13
2023-05-18T05:04:43.379Z,101317.66
2023-05-18T05:09:45.088Z,101321.03
2023-05-18T05:14:47.767Z,101312.94
2023-05-18T05:19:49.884Z,101321.19
2023-05-18T05:24:51.637Z,101321.13
2023-05-18T05:29:54.944Z,101331.47
2023-05-18T05:34:56.789Z,101324.97
2023-05-18T05:39:59.580Z,101314.69
2023-05-18T05:45:03.062Z,101315.13
2023-05-18T05:50:08.950Z,101324.47
2023-05-18T05:55:12.021Z,101316.16
2023-05-18T06:00:14.177Z,101319.69
2023-05-18T06:05:35.106Z,101321.44
2023-05-18T06:10:39.424Z,101323.69
2023-05-18T06:15:41.595Z,101324.50
2023-05-18T06:20:43.420Z,101335.94
2023-05-18T06:25:45.720Z,101334.06
2023-05-18T06:31:18.936Z,101337.78
2023-05-18T06:36:24.552Z,101340.13
2023-05-18T06:41:26.836Z,101335.13
2023-05-18T06:46:29.026Z,101345.34
2023-05-18T06:51:37.092Z,101355.59
2023-05-18T06:56:39.351Z,101355.88
2023-05-18T07:01:41.429Z,101356.69
2023-05-18T07:06:43.641Z,101356.19
2023-05-18T07:11:45.551Z,101355.53
2023-05-18T07:16:47.462Z,101351.97
2023-05-18T07:21:49.224Z,101355.38
2023-05-18T07:26:50.894Z,101344.66
2023-05-18T07:31:52.744Z,101336.72
2023-05-18T07:36:54.537Z,101342.16
2023-05-18T07:41:56.373Z,101344.88
2023-05-18T07:46:58.149Z,101334.47
2023-05-18T07:52:00.550Z,101338.59
2023-05-18T07:57:02.230Z,101336.28
2023-05-18T08:02:05.450Z,101342.88
2023-05-18T08:07:07.212Z,101353.44
2023-05-18T08:12:09.320Z,101348.19
2023-05-18T08:17:11.268Z,101342.53
2023-05-18T08:22:13.229Z,101339.03
2023-05-18T08:27:15.076Z,101343.59
2023-05-18T08:32:16.848Z,101334.16
2023-05-18T08:37:18.584Z,101335.13
2023-05-18T08:42:27.622Z,101339.25
2023-05-18T08:47:34.835Z,101325.56
2023-05-18T08:52:37.214Z,101340.25
2023-05-18T08:57:39.877Z,101340.16
2023-05-18T09:02:41.963Z,101336.88
2023-05-18T09:07:44.375Z,101327.31
2023-05-18T09:12:47.505Z,101328.44
2023-05-18T09:17:49.194Z,101320.50
2023-05-18T09:22:51.602Z,101317.94
2023-05-18T09:27:53.328Z,101318.19
2023-05-18T09:32:55.313Z,101315.88
2023-05-18T09:37:57.958Z,101315.91
2023-05-18T09:43:07.101Z,101307.03
2023-05-18T09:48:09.692Z,101308.25
2023-05-18T09:53:13.718Z,101303.94
2023-05-18T09:58:16.144Z,101309.09
2023-05-18T10:03:23.073Z,101305.41
2023-05-18T10:08:24.788Z,101306.09
2023-05-18T10:13:28.963Z,101305.88
2023-05-18T10:18:32.053Z,101303.00
2023-05-18T10:23:35.602Z,101297.03
2023-05-18T10:28:47.460Z,101279.31
2023-05-18T10:33:50.748Z,101287.25
2023-05-18T10:38:52.571Z,101283.19
2023-05-18T10:43:54.873Z,101281.19
2023-05-18T10:48:57.685Z,101272.03
2023-05-18T10:54:12.128Z,101270.78
2023-05-18T10:59:14.945Z,101267.13
2023-05-18T11:04:16.972Z,101275.22
2023-05-18T11:09:23.832Z,101273.94
2023-05-18T11:14:27.465Z,101272.94
2023-05-18T11:19:31.685Z,101269.34
2023-05-18T11:24:33.585Z,101252.00
2023-05-18T11:29:37.237Z,101249.72
2023-05-18T11:34:46.622Z,101250.16
2023-05-18T11:39:59.666Z,101245.72
2023-05-18T11:45:07.853Z,101246.53
2023-05-18T11:50:11.860Z,101244.81
2023-05-18T11:55:15.118Z,101241.69
2023-05-18T12:00:17.177Z,101241.19
2023-05-18T12:05:19.544Z,101244.94
2023-05-18T12:10:21.817Z,101226.06
2023-05-18T12:15:24.526Z,101222.34
2023-05-18T12:20:27.330Z,101226.19
2023-05-18T12:25:29.003Z,101222.00
2023-05-18T12:30:36.826Z,101226.34
2023-05-18T12:35:38.588Z,101219.88
2023-05-18T12:40:48.851Z,101216.50
2023-05-18T12:45:51.003Z,101218.94
2023-05-18T12:50:52.678Z,101215.38
2023-05-18T12:55:59.586Z,101216.75
2023-05-18T13:01:10.926Z,101209.41
2023-05-18T13:06:12.655Z,101211.09
2023-05-18T13:11:16.603Z,101201.59
2023-05-18T13:16:18.308Z,101201.91
2023-05-18T13:21:19.999Z,101202.72
2023-05-18T13:26:22.576Z,101205.22
2023-05-18T13:31:25.118Z,101205.72
2023-05-18T13:36:29.663Z,101200.53
2023-05-18T13:41:31.427Z,101202.97
2023-05-18T13:46:33.336Z,101207.59
2023-05-18T13:51:35.050Z,101206.31
2023-05-18T13:56:36.819Z,101194.63
2023-05-18T14:01:38.554Z,101197.69
2023-05-18T14:06:40.967Z,101193.09
2023-05-18T14:11:42.694Z,101185.94
2023-05-18T14:16:44.405Z,101190.56
2023-05-18T14:21:46.148Z,101187.09
2023-05-18T14:26:47.788Z,101190.13
2023-05-18T14:31:49.859Z,101190.16
2023-05-18T14:36:51.602Z,101180.00
2023-05-18T14:41:53.572Z,101181.25
2023-05-18T14:46:55.248Z,101179.63
2023-05-18T14:51:56.935Z,101179.25
2023-05-18T14:56:58.633Z,101180.00
2023-05-18T15:02:00.705Z,101167.31
2023-05-18T15:07:02.451Z,101166.44
2023-05-18T15:12:04.466Z,101156.31
2023-05-18T15:17:07.456Z,101154.84
2023-05-18T15:22:09.411Z,101156.00
2023-05-18T15:27:12.218Z,101158.44
2023-05-18T15:32:14.447Z,101157.59
2023-05-18T15:37:16.170Z,101157.56
2023-05-18T15:42:19.867Z,101148.84
2023-05-18T15:47:21.504Z,101156.44
2023-05-18T15:52:23.185Z,101156.19
2023-05-18T15:57:24.992Z,101150.19
2023-05-18T16:02:26.707Z,101145.41
2023-05-18T16:07:28.574Z,101153.44
2023-05-18T16:12:30.530Z,101139.53
2023-05-18T16:17:32.184Z,101141.75
2023-05-18T16:22:33.872Z,101135.59
2023-05-18T16:27:35.588Z,101133.59
2023-05-18T16:32:37.531Z,101134.25
2023-05-18T16:37:39.397Z,101120.63
2023-05-18T16:42:41.121Z,101122.63
2023-05-18T16:47:44.621Z,101125.53
2023-05-18T16:52:46.500Z,101122.63
2023-05-18T16:57:48.290Z,101115.16
2023-05-18T17:02:50.016Z,101124.66
2023-05-18T17:07:52.661Z,101121.94
2023-05-18T17:12:55.239Z,101128.53
2023-05-18T17:17:57.043Z,101127.63
2023-05-18T17:23:00.506Z,101134.41
2023-05-18T17:28:03.577Z,101132.16
2023-05-18T17:33:05.717Z,101135.22
2023-05-18T17:38:07.415Z,101131.28
2023-05-18T17:43:09.129Z,101137.19
2023-05-18T17:48:11.100Z,101143.81
2023-05-18T17:53:12.798Z,101140.56
2023-05-18T17:58:14.652Z,101139.34
2023-05-18T18:03:17.291Z,101137.75
2023-05-18T18:08:19.263Z,101141.38
2023-05-18T18:13:21.177Z,101141.16
2023-05-18T18:18:23.423Z,101139.91
2023-05-18T18:23:25.218Z,101143.25
2023-05-18T18:28:27.648Z,101141.19
2023-05-18T18:33:29.610Z,101142.13
2023-05-18T18:38:33.236Z,101141.91
2023-05-18T18:43:38.626Z,101143.53
2023-05-18T18:48:40.454Z,101146.00
2023-05-18T18:53:42.609Z,101141.88
2023-05-18T18:58:44.413Z,101151.66
2023-05-18T19:03:46.107Z,101155.53
2023-05-18T19:08:47.747Z,101161.28
2023-05-18T19:13:49.440Z,101160.72
2023-05-18T19:18:51.204Z,101167.16
2023-05-18T19:23:52.898Z,101175.47
2023-05-18T19:28:54.545Z,101182.91
2023-05-18T19:33:56.189Z,101178.94
2023-05-18T19:38:58.014Z,101185.13
2023-05-18T19:43:59.694Z,101195.16
2023-05-18T19:49:01.431Z,101190.63
2023-05-18T19:54:03.237Z,101193.25
2023-05-18T19:59:04.937Z,101205.69
2023-05-18T20:04:06.768Z,101199.16
2023-05-18T20:09:08.527Z,101199.03
2023-05-18T20:14:10.245Z,101197.22
2023-05-18T20:19:14.049Z,101206.34
2023-05-18T20:24:16.079Z,101204.66
2023-05-18T20:29:17.778Z,101210.09
2023-05-18T20:34:19.487Z,101212.13
2023-05-18T20:39:21.207Z,101220.25
2023-05-18T20:44:23.542Z,101219.25
2023-05-18T20:49:25.186Z,101221.66
2023-05-18T20:54:26.929Z,101218.69
2023-05-18T20:59:28.712Z,101224.25
2023-05-18T21:04:31.013Z,101213.69
2023-05-18T21:09:34.096Z,101210.84
2023-05-18T21:14:35.883Z,101212.28
2023-05-18T21:19:37.684Z,101207.41
2023-05-18T21:24:39.320Z,101207.00
2023-05-18T21:29:40.997Z,101198.41
2023-05-18T21:34:43.775Z,101211.50
2023-05-18T21:39:46.767Z,101199.25
2023-05-18T21:44:48.454Z,101195.25
2023-05-18T21:49:50.140Z,101207.09
2023-05-18T21:54:51.791Z,101207.94
2023-05-18T21:59:53.438Z,101206.34
2023-05-18T22:04:55.287Z,101199.22
2023-05-18T22:09:56.949Z,101199.22
2023-05-18T22:14:58.837Z,101188.53
2023-05-18T22:20:00.573Z,101192.22
2023-05-18T22:25:02.239Z,101193.94
2023-05-18T22:30:06.165Z,101194.66
2023-05-18T22:35:09.021Z,101186.44
2023-05-18T22:40:11.139Z,101187.41
2023-05-18T22:45:12.978Z,101183.97
2023-05-18T22:50:14.914Z,101188.53
2023-05-18T22:55:16.625Z,101186.38
2023-05-18T23:00:18.416Z,101184.69
2023-05-18T23:05:20.185Z,101177.41
2023-05-18T23:10:21.927Z,101175.69
2023-05-18T23:15:23.649Z,101179.84
2023-05-18T23:20:28.086Z,101180.13
2023-05-18T23:25:29.814Z,101179.16
2023-05-18T23:30:32.260Z,101182.84
2023-05-18T23:35:35.479Z,101184.69
2023-05-18T23:40:37.300Z,101184.81
2023-05-18T23:45:39.353Z,101176.47
2023-05-18T23:50:44.365Z,101169.31
2023-05-18T23:55:46.183Z,101167.03
